createdAt,value
2023-02-09T00:01:12.690Z,33.80
2023-02-09T00:04:25.230Z,35.30
2023-02-09T00:12:02.062Z,35.40
2023-02-09T00:24:00.440Z,35.22
2023-02-09T00:30:17.722Z,33.92
2023-02-09T00:33:39.700Z,34.85
2023-02-09T00:36:38.923Z,37.95
2023-02-09T00:39:33.000Z,35.45
2023-02-09T00:43:05.762Z,36.55
2023-02-09T00:45:43.721Z,37.72
2023-02-09T00:48:12.910Z,33.58
2023-02-09T00:50:41.886Z,35.30
2023-02-09T00:53:11.002Z,32.97
2023-02-09T00:55:43.164Z,40.88
2023-02-09T00:58:12.242Z,41.20
2023-02-09T01:00:41.356Z,42.47
2023-02-09T01:03:12.292Z,44.80
2023-02-09T01:05:41.662Z,38.30
2023-02-09T01:08:10.781Z,38.88
2023-02-09T01:10:40.360Z,45.95
2023-02-09T01:13:10.423Z,37.65
2023-02-09T01:15:41.131Z,44.05
2023-02-09T01:18:11.723Z,39.13
2023-02-09T01:20:42.218Z,35.85
2023-02-09T01:23:11.517Z,43.10
2023-02-09T01:25:40.880Z,40.55
2023-02-09T01:28:10.132Z,41.13
2023-02-09T01:30:39.525Z,45.25
2023-02-09T01:33:08.668Z,37.58
2023-02-09T01:35:39.257Z,40.53
2023-02-09T01:38:08.424Z,38.87
2023-02-09T01:40:37.619Z,43.42
2023-02-09T01:43:06.706Z,45.08
2023-02-09T01:45:38.276Z,42.38
2023-02-09T01:50:38.755Z,41.45
2023-02-09T01:53:09.802Z,41.63
2023-02-09T01:55:42.024Z,43.60
2023-02-09T01:58:12.660Z,39.45
2023-02-09T02:00:42.033Z,39.57
2023-02-09T02:03:13.551Z,39.70
2023-02-09T02:05:45.576Z,43.87
2023-02-09T02:08:21.030Z,35.25
2023-02-09T02:10:50.012Z,33.67
2023-02-09T02:16:47.966Z,36.95
2023-02-09T02:19:37.982Z,40.47
2023-02-09T02:22:24.791Z,42.95
2023-02-09T02:25:14.713Z,39.40
2023-02-09T02:27:48.564Z,42.60
2023-02-09T02:30:36.389Z,42.72
2023-02-09T02:33:15.615Z,43.70
2023-02-09T02:35:47.981Z,40.92
2023-02-09T02:38:19.862Z,48.22
2023-02-09T02:43:22.696Z,43.05
2023-02-09T02:45:54.812Z,47.75
2023-02-09T02:48:32.817Z,40.05
2023-02-09T02:51:05.207Z,46.08
2023-02-09T02:53:35.929Z,44.28
2023-02-09T02:56:08.147Z,47.03
2023-02-09T02:58:38.623Z,46.08
2023-02-09T03:01:09.667Z,45.80
2023-02-09T03:03:41.849Z,49.55
2023-02-09T03:06:11.790Z,43.95
2023-02-09T03:08:48.973Z,41.22
2023-02-09T03:11:19.094Z,44.33
2023-02-09T03:14:06.103Z,41.08
2023-02-09T03:16:38.791Z,41.65
2023-02-09T03:19:15.573Z,39.08
2023-02-09T03:21:48.925Z,39.78
2023-02-09T03:24:24.897Z,39.90
2023-02-09T03:26:57.467Z,38.50
2023-02-09T03:29:27.192Z,32.55
2023-02-09T03:31:56.302Z,41.30
2023-02-09T03:34:26.827Z,42.25
2023-02-09T03:36:57.068Z,41.10
2023-02-09T03:39:26.064Z,39.47
2023-02-09T03:41:55.125Z,43.17
2023-02-09T03:44:30.064Z,43.42
2023-02-09T03:47:00.098Z,38.72
2023-02-09T03:49:31.596Z,40.08
2023-02-09T03:52:01.652Z,35.67
2023-02-09T03:54:31.036Z,44.67
2023-02-09T03:57:00.686Z,46.92
2023-02-09T03:59:30.545Z,40.75
2023-02-09T04:02:00.581Z,37.08
2023-02-09T04:04:31.295Z,38.58
2023-02-09T04:07:00.610Z,33.97
2023-02-09T04:09:30.464Z,33.60
2023-02-09T04:11:59.555Z,32.63
2023-02-09T04:14:28.812Z,34.17
2023-02-09T04:16:58.093Z,38.05
2023-02-09T04:19:27.420Z,32.65
2023-02-09T04:21:58.016Z,35.17
2023-02-09T04:24:29.898Z,34.17
2023-02-09T04:26:59.019Z,33.70
2023-02-09T04:29:28.404Z,30.02
2023-02-09T04:31:58.512Z,32.28
2023-02-09T04:34:27.841Z,31.65
2023-02-09T04:36:58.354Z,30.95
2023-02-09T04:39:27.487Z,30.48
2023-02-09T04:41:56.570Z,29.02
2023-02-09T04:44:25.584Z,32.70
2023-02-09T04:46:54.657Z,29.98
2023-02-09T04:49:23.696Z,29.05
2023-02-09T04:51:52.690Z,30.80
2023-02-09T04:54:23.070Z,29.42
2023-02-09T04:57:13.121Z,29.15
2023-02-09T04:59:41.819Z,29.92
2023-02-09T05:02:10.928Z,24.38
2023-02-09T05:04:39.989Z,28.15
2023-02-09T05:07:09.085Z,24.88
2023-02-09T05:09:39.452Z,28.45
2023-02-09T05:12:10.088Z,26.73
2023-02-09T05:14:39.339Z,29.42
2023-02-09T05:17:08.473Z,24.45
2023-02-09T05:19:40.184Z,26.90
2023-02-09T05:24:39.590Z,21.95
2023-02-09T05:27:08.588Z,20.88
2023-02-09T05:29:37.611Z,20.45
2023-02-09T05:32:06.844Z,21.05
2023-02-09T05:34:36.042Z,23.55
2023-02-09T05:37:05.763Z,19.20
2023-02-09T05:39:34.761Z,25.08
2023-02-09T05:42:17.748Z,30.20
2023-02-09T05:44:47.355Z,23.83
2023-02-09T05:47:17.005Z,24.25
2023-02-09T05:49:46.221Z,24.23
2023-02-09T05:52:16.793Z,19.83
2023-02-09T05:54:46.391Z,18.17
2023-02-09T05:57:16.980Z,21.95
2023-02-09T05:59:46.127Z,18.48
2023-02-09T06:02:15.351Z,19.63
2023-02-09T06:04:44.691Z,18.60
2023-02-09T06:07:13.812Z,14.93
2023-02-09T06:09:43.066Z,16.67
2023-02-09T06:12:12.507Z,17.05
2023-02-09T06:14:43.128Z,16.30
2023-02-09T06:17:12.359Z,16.67
2023-02-09T06:19:41.533Z,17.30
2023-02-09T06:22:11.943Z,15.52
2023-02-09T06:24:41.060Z,15.55
2023-02-09T06:27:10.443Z,15.55
2023-02-09T06:29:39.760Z,16.02
2023-02-09T06:32:10.585Z,13.32
2023-02-09T06:34:40.214Z,12.50
2023-02-09T06:37:09.609Z,18.17
2023-02-09T06:39:38.766Z,12.07
2023-02-09T06:42:08.159Z,12.27
2023-02-09T06:44:37.515Z,14.98
2023-02-09T06:47:06.857Z,12.82
2023-02-09T06:49:37.592Z,10.48
2023-02-09T06:52:07.270Z,13.40
2023-02-09T06:54:36.548Z,14.05
2023-02-09T06:57:05.982Z,17.67
2023-02-09T06:59:34.984Z,16.45
2023-02-09T07:02:04.110Z,17.92
2023-02-09T07:04:33.275Z,10.50
2023-02-09T07:07:03.818Z,12.13
2023-02-09T07:09:32.953Z,11.73
2023-02-09T07:12:02.011Z,15.75
2023-02-09T07:14:31.143Z,9.68
2023-02-09T07:17:00.164Z,12.85
2023-02-09T07:19:29.417Z,13.23
2023-02-09T07:21:58.824Z,13.25
2023-02-09T07:24:29.480Z,9.57
2023-02-09T07:26:58.529Z,13.85
2023-02-09T07:29:27.648Z,11.35
2023-02-09T07:31:56.706Z,10.68
2023-02-09T07:34:25.935Z,11.77
2023-02-09T07:36:54.884Z,12.90
2023-02-09T07:39:23.966Z,9.70
2023-02-09T07:41:54.624Z,12.95
2023-02-09T07:44:24.968Z,11.10
2023-02-09T07:46:54.118Z,11.65
2023-02-09T07:49:23.293Z,12.00
2023-02-09T07:51:52.281Z,14.55
2023-02-09T07:54:21.690Z,15.10
2023-02-09T07:56:50.728Z,21.92
2023-02-09T07:59:21.071Z,14.73
2023-02-09T08:01:51.423Z,16.38
2023-02-09T08:04:20.653Z,16.40
2023-02-09T08:06:49.781Z,16.85
2023-02-09T08:09:20.797Z,17.98
2023-02-09T08:11:51.909Z,14.93
2023-02-09T08:14:24.080Z,13.30
2023-02-09T08:17:16.882Z,17.30
2023-02-09T08:19:46.786Z,14.00
2023-02-09T08:22:16.396Z,16.05
2023-02-09T08:24:46.015Z,16.52
2023-02-09T08:27:15.278Z,16.45
2023-02-09T08:29:47.454Z,15.57
2023-02-09T08:32:17.863Z,14.02
2023-02-09T08:34:46.914Z,17.58
2023-02-09T08:37:15.980Z,12.50
2023-02-09T08:39:45.954Z,17.90
2023-02-09T08:42:14.942Z,15.65
2023-02-09T08:44:44.038Z,15.35
2023-02-09T08:47:15.642Z,18.92
2023-02-09T08:49:44.593Z,16.63
2023-02-09T08:52:15.388Z,15.32
2023-02-09T08:54:44.560Z,20.00
2023-02-09T08:57:14.397Z,16.90
2023-02-09T08:59:44.153Z,17.77
2023-02-09T09:02:14.698Z,19.70
2023-02-09T09:04:43.655Z,19.02
2023-02-09T09:07:12.718Z,15.38
2023-02-09T09:09:41.848Z,24.20
2023-02-09T09:12:13.770Z,19.25
2023-02-09T09:17:14.844Z,19.77
2023-02-09T09:19:43.885Z,18.75
2023-02-09T09:22:12.818Z,17.05
2023-02-09T09:24:41.782Z,18.30
2023-02-09T09:27:12.520Z,20.45
2023-02-09T09:29:41.486Z,18.23
2023-02-09T09:32:13.884Z,17.45
2023-02-09T09:34:44.898Z,18.92
2023-02-09T09:37:14.627Z,21.05
2023-02-09T09:39:43.720Z,18.23
2023-02-09T09:42:17.019Z,21.23
2023-02-09T09:44:47.471Z,18.00
2023-02-09T09:47:18.613Z,18.75
2023-02-09T09:49:50.221Z,15.13
2023-02-09T09:52:21.613Z,17.83
2023-02-09T09:54:50.657Z,21.97
2023-02-09T09:57:21.645Z,20.85
2023-02-09T09:59:50.941Z,22.90
2023-02-09T10:02:23.534Z,20.63
2023-02-09T10:04:54.368Z,19.20
2023-02-09T10:07:23.995Z,20.00
2023-02-09T10:09:54.457Z,18.48
2023-02-09T10:12:33.284Z,18.92
2023-02-09T10:15:19.021Z,26.85
2023-02-09T10:17:48.454Z,19.00
2023-02-09T10:20:19.294Z,19.67
2023-02-09T10:22:53.198Z,19.73
2023-02-09T10:25:38.585Z,26.80
2023-02-09T10:28:08.744Z,20.58
2023-02-09T10:30:37.977Z,21.25
2023-02-09T10:33:07.374Z,16.10
2023-02-09T10:35:43.598Z,15.93
2023-02-09T10:38:17.053Z,19.17
2023-02-09T10:40:48.651Z,23.60
2023-02-09T10:43:22.628Z,19.77
2023-02-09T10:45:55.111Z,17.67
2023-02-09T10:48:25.095Z,22.80
2023-02-09T10:50:57.999Z,20.88
2023-02-09T10:53:28.568Z,20.33
2023-02-09T10:56:03.544Z,17.15
2023-02-09T10:58:33.682Z,16.25
2023-02-09T11:01:17.897Z,15.80
2023-02-09T11:04:01.581Z,16.70
2023-02-09T11:06:35.540Z,19.77
2023-02-09T11:09:07.746Z,21.73
2023-02-09T11:11:38.371Z,17.48
2023-02-09T11:14:11.887Z,17.17
2023-02-09T11:16:52.237Z,18.70
2023-02-09T11:19:31.542Z,24.40
2023-02-09T11:22:04.393Z,17.15
2023-02-09T11:24:40.741Z,22.60
2023-02-09T11:27:19.260Z,19.08
2023-02-09T11:29:51.701Z,18.13
2023-02-09T11:32:22.342Z,20.35
2023-02-09T11:34:56.252Z,17.90
2023-02-09T11:37:36.848Z,19.15
2023-02-09T11:40:21.413Z,20.52
2023-02-09T11:42:52.842Z,19.52
2023-02-09T11:45:25.392Z,18.75
2023-02-09T11:47:58.993Z,18.48
2023-02-09T11:50:30.529Z,18.00
2023-02-09T11:53:01.735Z,17.23
2023-02-09T11:55:32.980Z,19.48
2023-02-09T11:58:08.203Z,19.67
2023-02-09T12:00:54.494Z,16.85
2023-02-09T12:03:27.176Z,16.67
2023-02-09T12:05:57.528Z,22.00
2023-02-09T12:08:35.827Z,22.52
2023-02-09T12:11:12.174Z,20.40
2023-02-09T12:13:45.142Z,25.35
2023-02-09T12:16:16.362Z,17.70
2023-02-09T12:18:46.777Z,18.80
2023-02-09T12:21:27.426Z,21.25
2023-02-09T12:23:58.032Z,15.90
2023-02-09T12:26:39.240Z,20.55
2023-02-09T12:29:33.019Z,21.35
2023-02-09T12:32:22.906Z,16.05
2023-02-09T12:34:53.226Z,22.52
2023-02-09T12:37:28.435Z,19.48
2023-02-09T12:40:18.242Z,20.63
2023-02-09T12:42:48.557Z,16.65
2023-02-09T12:45:35.115Z,16.90
2023-02-09T12:48:13.229Z,17.00
2023-02-09T12:50:50.981Z,18.65
2023-02-09T12:53:50.219Z,24.17
2023-02-09T12:56:33.695Z,17.35
2023-02-09T12:59:23.982Z,21.45
2023-02-09T13:02:20.652Z,15.25
2023-02-09T13:04:59.442Z,13.65
2023-02-09T13:07:34.479Z,15.68
2023-02-09T13:10:10.203Z,18.90
2023-02-09T13:12:44.279Z,15.45
2023-02-09T13:15:14.359Z,15.77
2023-02-09T13:17:45.818Z,15.90
2023-02-09T13:20:31.394Z,18.10
2023-02-09T13:23:08.611Z,16.25
2023-02-09T13:25:38.305Z,16.95
2023-02-09T13:28:16.872Z,18.65
2023-02-09T13:30:46.417Z,18.17
2023-02-09T13:33:23.815Z,17.80
2023-02-09T13:36:08.830Z,16.98
2023-02-09T13:38:42.207Z,15.50
2023-02-09T13:41:25.681Z,14.88
2023-02-09T13:43:56.110Z,15.95
2023-02-09T13:46:26.567Z,17.88
2023-02-09T13:48:55.923Z,15.50
2023-02-09T13:51:24.960Z,18.75
2023-02-09T13:54:00.800Z,18.77
2023-02-09T13:56:30.302Z,17.08
2023-02-09T13:59:01.474Z,18.27
2023-02-09T14:01:32.092Z,15.60
2023-02-09T14:04:06.337Z,18.13
2023-02-09T14:06:37.478Z,18.25
2023-02-09T14:09:08.531Z,16.55
2023-02-09T14:11:42.610Z,16.73
2023-02-09T14:14:15.264Z,18.38
2023-02-09T14:16:52.887Z,17.05
2023-02-09T14:19:26.328Z,14.73
2023-02-09T14:21:55.736Z,20.48
2023-02-09T14:24:26.027Z,16.85
2023-02-09T14:26:56.837Z,17.40
2023-02-09T14:29:28.533Z,16.17
2023-02-09T14:31:58.579Z,18.17
2023-02-09T14:34:32.708Z,12.43
2023-02-09T14:37:03.329Z,20.08
2023-02-09T14:39:32.562Z,12.23
2023-02-09T14:42:17.991Z,15.15
2023-02-09T14:44:50.058Z,11.93
2023-02-09T14:47:45.435Z,17.13
2023-02-09T14:50:15.697Z,16.38
2023-02-09T14:52:47.206Z,12.23
2023-02-09T14:55:17.799Z,16.55
2023-02-09T14:57:47.232Z,13.20
2023-02-09T15:00:21.921Z,18.88
2023-02-09T15:02:51.559Z,21.42
2023-02-09T15:05:21.424Z,12.63
2023-02-09T15:07:51.614Z,14.75
2023-02-09T15:10:22.882Z,16.40
2023-02-09T15:12:51.857Z,14.53
2023-02-09T15:15:23.353Z,11.52
2023-02-09T15:17:54.236Z,15.80
2023-02-09T15:20:25.411Z,12.75
2023-02-09T15:22:54.923Z,12.95
2023-02-09T15:25:24.484Z,16.20
2023-02-09T15:27:54.024Z,13.05
2023-02-09T15:30:26.387Z,15.02
2023-02-09T15:32:55.906Z,12.88
2023-02-09T15:35:26.299Z,13.45
2023-02-09T15:37:56.386Z,18.10
2023-02-09T15:40:47.177Z,10.25
2023-02-09T15:43:35.436Z,11.20
2023-02-09T15:46:30.544Z,11.27
2023-02-09T15:48:59.625Z,16.70
2023-02-09T15:51:31.354Z,11.65
2023-02-09T15:54:02.236Z,13.32
2023-02-09T15:56:31.519Z,10.40
2023-02-09T15:59:05.494Z,18.25
2023-02-09T16:01:38.802Z,12.23
2023-02-09T16:04:14.667Z,12.57
2023-02-09T16:07:04.250Z,11.32
2023-02-09T16:09:34.636Z,13.65
2023-02-09T16:12:05.325Z,14.65
2023-02-09T16:14:34.584Z,13.52
2023-02-09T16:17:05.577Z,10.68
2023-02-09T16:19:34.738Z,13.50
2023-02-09T16:22:06.424Z,12.80
2023-02-09T16:24:38.868Z,10.73
2023-02-09T16:27:13.397Z,7.40
2023-02-09T16:29:42.361Z,11.35
2023-02-09T16:32:17.412Z,10.90
2023-02-09T16:34:46.948Z,10.32
2023-02-09T16:37:16.953Z,11.35
2023-02-09T16:39:46.135Z,14.93
2023-02-09T16:42:16.175Z,15.98
2023-02-09T16:44:45.116Z,10.50
2023-02-09T16:47:19.986Z,11.80
2023-02-09T16:49:50.720Z,13.48
2023-02-09T16:52:21.554Z,11.32
2023-02-09T16:54:51.672Z,13.10
2023-02-09T16:57:23.176Z,12.98
2023-02-09T16:59:52.394Z,16.75
2023-02-09T17:02:35.117Z,11.80
2023-02-09T17:05:05.060Z,19.50
2023-02-09T17:07:45.379Z,20.90
2023-02-09T17:10:23.646Z,20.17
2023-02-09T17:12:53.823Z,19.48
2023-02-09T17:15:32.308Z,17.05
2023-02-09T17:18:05.748Z,16.15
2023-02-09T17:20:38.167Z,14.43
2023-02-09T17:23:07.221Z,14.20
2023-02-09T17:25:36.909Z,14.63
2023-02-09T17:28:06.042Z,15.63
2023-02-09T17:30:35.707Z,16.10
2023-02-09T17:33:07.301Z,18.88
2023-02-09T17:38:30.806Z,17.65
2023-02-09T17:41:00.830Z,17.15
2023-02-09T17:43:30.344Z,17.27
2023-02-09T17:45:59.787Z,15.32
2023-02-09T17:48:30.596Z,19.23
2023-02-09T17:51:00.571Z,16.05
2023-02-09T17:53:30.548Z,19.95
2023-02-09T17:55:59.622Z,16.38
2023-02-09T17:58:29.009Z,13.43
2023-02-09T18:00:58.612Z,15.27
2023-02-09T18:03:27.657Z,14.40
2023-02-09T18:06:01.495Z,13.00
2023-02-09T18:08:31.157Z,13.07
2023-02-09T18:11:00.179Z,11.63
2023-02-09T18:13:29.176Z,15.68
2023-02-09T18:15:58.271Z,16.70
2023-02-09T18:18:27.368Z,15.93
2023-02-09T18:20:57.728Z,17.52
2023-02-09T18:23:26.878Z,16.17
2023-02-09T18:25:55.836Z,17.55
2023-02-09T18:28:24.852Z,14.93
2023-02-09T18:30:54.050Z,16.80
2023-02-09T18:33:23.285Z,16.13
2023-02-09T18:35:52.451Z,15.50
2023-02-09T18:38:22.906Z,18.27
2023-02-09T18:40:53.287Z,13.93
2023-02-09T18:43:22.301Z,16.58
2023-02-09T18:45:51.215Z,18.30
2023-02-09T18:48:20.207Z,17.70
2023-02-09T18:50:49.202Z,14.27
2023-02-09T18:53:22.006Z,20.25
2023-02-09T18:55:54.385Z,22.85
2023-02-09T18:58:23.587Z,16.55
2023-02-09T19:00:52.940Z,20.95
2023-02-09T19:03:23.162Z,20.33
2023-02-09T19:05:52.264Z,20.90
2023-02-09T19:08:21.231Z,19.27
2023-02-09T19:10:50.192Z,19.45
2023-02-09T19:13:20.521Z,19.50
2023-02-09T19:15:49.984Z,25.08
2023-02-09T19:18:19.296Z,19.45
2023-02-09T19:20:48.821Z,22.20
2023-02-09T19:23:17.946Z,18.63
2023-02-09T19:25:47.515Z,20.70
2023-02-09T19:28:16.729Z,17.85
2023-02-09T19:30:47.148Z,18.77
2023-02-09T19:33:16.195Z,15.25
2023-02-09T19:35:45.545Z,18.58
2023-02-09T19:38:14.802Z,18.58
2023-02-09T19:40:43.858Z,18.25
2023-02-09T19:43:13.311Z,19.40
2023-02-09T19:45:42.315Z,16.08
2023-02-09T19:48:13.248Z,17.75
2023-02-09T19:50:42.495Z,19.10
2023-02-09T19:53:11.451Z,24.02
2023-02-09T19:55:40.436Z,17.88
2023-02-09T19:58:09.440Z,18.70
2023-02-09T20:00:38.424Z,19.23
2023-02-09T20:03:07.508Z,21.90
2023-02-09T20:05:40.956Z,22.20
2023-02-09T20:08:14.716Z,21.45
2023-02-09T20:10:44.549Z,22.65
2023-02-09T20:13:13.974Z,26.77
2023-02-09T20:15:43.511Z,21.00
2023-02-09T20:18:14.797Z,22.98
2023-02-09T20:20:47.943Z,22.10
2023-02-09T20:23:17.243Z,25.52
2023-02-09T20:25:46.379Z,22.45
2023-02-09T20:28:15.558Z,17.95
2023-02-09T20:30:45.328Z,23.27
2023-02-09T20:33:14.834Z,22.65
2023-02-09T20:35:45.079Z,21.35
2023-02-09T20:38:15.736Z,18.98
2023-02-09T20:40:45.409Z,15.95
2023-02-09T20:43:32.167Z,16.40
2023-02-09T20:46:23.909Z,19.20
2023-02-09T20:48:53.409Z,18.38
2023-02-09T20:51:22.524Z,17.92
2023-02-09T20:53:52.951Z,16.17
2023-02-09T20:56:23.903Z,16.88
2023-02-09T20:58:54.007Z,18.40
2023-02-09T21:01:23.825Z,21.50
2023-02-09T21:03:53.102Z,15.38
2023-02-09T21:06:22.708Z,15.40
2023-02-09T21:08:53.426Z,18.38
2023-02-09T21:11:22.618Z,14.43
2023-02-09T21:13:52.198Z,15.23
2023-02-09T21:16:21.257Z,18.35
2023-02-09T21:18:50.562Z,13.13
2023-02-09T21:21:22.797Z,11.90
2023-02-09T21:23:53.397Z,13.73
2023-02-09T21:26:24.531Z,12.45
2023-02-09T21:28:56.384Z,8.27
2023-02-09T21:31:26.984Z,14.23
2023-02-09T21:33:56.262Z,18.27
2023-02-09T21:36:25.515Z,13.07
2023-02-09T21:38:55.916Z,12.23
2023-02-09T21:41:43.718Z,18.50
2023-02-09T21:44:14.046Z,12.55
2023-02-09T21:46:43.387Z,10.88
2023-02-09T21:49:13.761Z,11.75
2023-02-09T21:51:43.150Z,24.65
2023-02-09T21:54:15.681Z,13.95
2023-02-09T21:56:45.063Z,10.05
2023-02-09T21:59:15.630Z,14.83
2023-02-09T22:01:44.879Z,15.25
2023-02-09T22:04:13.904Z,20.42
2023-02-09T22:06:42.925Z,12.85
2023-02-09T22:09:11.911Z,13.70
2023-02-09T22:11:42.434Z,13.20
2023-02-09T22:14:11.820Z,11.07
2023-02-09T22:16:41.063Z,12.75
2023-02-09T22:19:10.354Z,12.90
2023-02-09T22:21:39.347Z,13.05
2023-02-09T22:24:08.619Z,11.00
2023-02-09T22:26:40.669Z,12.90
2023-02-09T22:31:39.911Z,11.18
2023-02-09T22:34:09.142Z,13.38
2023-02-09T22:36:39.915Z,16.02
2023-02-09T22:39:09.932Z,13.57
2023-02-09T22:41:39.191Z,13.85
2023-02-09T22:44:09.295Z,11.85
2023-02-09T22:46:40.936Z,12.70
2023-02-09T22:49:10.648Z,12.02
2023-02-09T22:51:39.840Z,15.60
2023-02-09T22:54:08.813Z,16.25
2023-02-09T22:56:37.830Z,14.63
2023-02-09T22:59:06.985Z,16.52
2023-02-09T23:01:36.006Z,12.60
2023-02-09T23:04:07.477Z,15.98
2023-02-09T23:09:09.986Z,13.00
2023-02-09T23:11:39.068Z,19.55
2023-02-09T23:14:10.690Z,12.95
2023-02-09T23:16:40.749Z,13.80
2023-02-09T23:19:13.017Z,16.80
2023-02-09T23:21:43.223Z,16.45
2023-02-09T23:24:12.573Z,14.70
2023-02-09T23:26:41.756Z,11.57
2023-02-09T23:29:13.765Z,15.40
2023-02-09T23:31:43.312Z,16.85
2023-02-09T23:34:15.592Z,15.75
2023-02-09T23:36:44.567Z,12.35
2023-02-09T23:39:15.200Z,12.63
2023-02-09T23:41:44.539Z,15.13
2023-02-09T23:44:13.839Z,14.48
2023-02-09T23:46:42.798Z,14.45
2023-02-09T23:49:11.984Z,12.20
2023-02-09T23:51:42.495Z,14.43
2023-02-09T23:54:12.357Z,13.32
2023-02-09T23:56:41.608Z,11.93
2023-02-09T23:59:11.646Z,16.13
